createdAt,value
2022-10-21T00:00:36.691Z,17.60
2022-10-21T00:03:51.066Z,17.60
2022-10-21T00:15:52.536Z,17.60
2022-10-21T00:19:16.279Z,17.60
2022-10-21T00:25:13.786Z,17.70
2022-10-21T00:28:07.480Z,17.60
2022-10-21T00:30:48.214Z,17.70
2022-10-21T00:36:45.650Z,17.70
2022-10-21T00:39:29.043Z,17.60
2022-10-21T00:42:50.657Z,17.70
2022-10-21T00:45:45.523Z,17.80
2022-10-21T00:48:39.348Z,17.50
2022-10-21T00:54:56.815Z,17.60
2022-10-21T00:58:18.851Z,17.60
2022-10-21T01:01:21.517Z,17.70
2022-10-21T01:04:24.389Z,17.70
2022-10-21T01:07:23.568Z,17.70
2022-10-21T01:10:05.625Z,17.60
2022-10-21T01:13:03.872Z,17.70
2022-10-21T01:16:19.408Z,17.80
2022-10-21T01:27:04.875Z,17.70
2022-10-21T01:41:40.374Z,17.70
2022-10-21T01:44:56.389Z,17.70
2022-10-21T01:48:08.663Z,17.80
2022-10-21T01:54:36.776Z,17.70
2022-10-21T01:58:14.749Z,17.60
2022-10-21T02:01:29.112Z,17.70
2022-10-21T02:05:08.357Z,17.60
2022-10-21T02:08:34.726Z,17.60
2022-10-21T02:12:59.347Z,17.40
2022-10-21T02:16:46.926Z,17.40
2022-10-21T02:46:20.728Z,17.40
2022-10-21T02:53:42.027Z,17.50
2022-10-21T03:02:26.417Z,17.50
2022-10-21T03:06:48.790Z,17.50
2022-10-21T03:10:14.870Z,17.60
2022-10-21T03:13:53.999Z,17.50
2022-10-21T03:32:11.674Z,17.30
2022-10-21T03:40:09.929Z,17.50
2022-10-21T03:50:59.693Z,17.20
2022-10-21T04:02:46.619Z,17.10
2022-10-21T04:10:27.427Z,17.20
2022-10-21T04:23:34.571Z,17.10
2022-10-21T04:26:57.725Z,16.90
2022-10-21T04:29:41.687Z,17.00
2022-10-21T04:32:15.442Z,16.90
2022-10-21T04:34:48.295Z,17.00
2022-10-21T04:37:51.599Z,17.00
2022-10-21T04:40:48.031Z,16.90
2022-10-21T04:44:49.782Z,17.10
2022-10-21T04:47:47.280Z,17.00
2022-10-21T04:50:50.201Z,17.00
2022-10-21T04:53:36.255Z,17.00
2022-10-21T05:01:31.816Z,17.20
2022-10-21T05:10:03.297Z,17.20
2022-10-21T05:50:07.729Z,17.00
2022-10-21T05:53:16.633Z,17.10
2022-10-21T05:56:40.072Z,17.00
2022-10-21T06:11:10.491Z,17.30
2022-10-21T06:14:51.899Z,17.30
2022-10-21T06:34:44.597Z,17.30
2022-10-21T06:37:53.714Z,17.10
2022-10-21T06:58:16.288Z,17.40
2022-10-21T07:11:07.536Z,17.00
2022-10-21T07:19:02.715Z,16.60
2022-10-21T07:22:55.893Z,16.80
2022-10-21T07:26:45.624Z,17.10
2022-10-21T07:31:03.610Z,17.00
2022-10-21T07:33:34.887Z,17.20
2022-10-21T07:36:15.365Z,17.20
2022-10-21T07:38:46.713Z,17.20
2022-10-21T07:41:16.585Z,17.20
2022-10-21T07:43:45.574Z,17.30
2022-10-21T07:46:14.037Z,17.30
2022-10-21T07:48:44.075Z,17.30
2022-10-21T07:51:18.010Z,17.40
2022-10-21T07:53:56.331Z,17.50
2022-10-21T07:56:26.901Z,17.50
2022-10-21T07:58:57.337Z,17.50
2022-10-21T08:01:26.523Z,17.50
2022-10-21T08:03:57.386Z,17.50
2022-10-21T08:06:27.551Z,17.50
2022-10-21T08:08:57.431Z,17.40
2022-10-21T08:11:28.760Z,17.30
2022-10-21T08:13:57.672Z,17.40
2022-10-21T08:16:26.652Z,17.40
2022-10-21T08:18:57.063Z,17.40
2022-10-21T08:21:27.466Z,17.50
2022-10-21T08:24:18.966Z,17.50
2022-10-21T08:27:34.058Z,17.60
2022-10-21T10:22:59.293Z,17.20
2022-10-21T10:25:58.257Z,17.10
2022-10-21T10:28:52.055Z,17.40
2022-10-21T10:31:44.439Z,17.30
2022-10-21T10:35:02.005Z,17.10
2022-10-21T11:05:27.207Z,17.40
2022-10-21T11:08:22.912Z,17.50
2022-10-21T11:11:15.585Z,17.50
2022-10-21T11:28:46.555Z,17.80
2022-10-21T11:39:57.098Z,18.00
2022-10-21T11:43:58.595Z,18.10
2022-10-21T11:48:34.803Z,18.00
2022-10-21T12:21:38.492Z,19.10
2022-10-21T12:25:47.463Z,19.10
2022-10-21T12:33:47.481Z,18.90
2022-10-21T12:52:47.512Z,19.10
2022-10-21T14:34:26.624Z,19.80
2022-10-21T15:10:05.166Z,20.00
2022-10-21T15:17:13.123Z,19.80
2022-10-21T15:20:16.206Z,19.90
2022-10-21T15:22:43.046Z,19.80
2022-10-21T15:25:20.089Z,19.80
2022-10-21T15:27:48.840Z,19.70
2022-10-21T15:30:20.500Z,19.80
2022-10-21T15:36:43.957Z,19.80
2022-10-21T15:39:14.569Z,19.70
2022-10-21T15:42:31.057Z,19.70
2022-10-21T15:45:30.299Z,19.70
2022-10-21T15:48:33.159Z,19.80
2022-10-21T15:52:38.103Z,19.80
2022-10-21T15:56:10.986Z,19.70
2022-10-21T16:03:33.961Z,19.70
2022-10-21T16:06:29.558Z,19.60
2022-10-21T16:09:01.624Z,19.70
2022-10-21T16:11:54.817Z,19.60
2022-10-21T16:40:15.714Z,18.60
2022-10-21T16:43:48.202Z,18.70
2022-10-21T16:47:16.096Z,18.90
2022-10-21T16:50:40.795Z,18.80
2022-10-21T16:54:38.808Z,18.70
2022-10-21T16:57:44.259Z,18.60
2022-10-21T17:01:26.863Z,18.60
2022-10-21T17:04:54.150Z,18.60
2022-10-21T17:07:46.652Z,18.50
2022-10-21T17:11:10.943Z,18.50
2022-10-21T17:14:19.688Z,18.50
2022-10-21T17:21:07.875Z,18.60
2022-10-21T17:24:19.549Z,18.50
2022-10-21T17:30:35.898Z,18.20
2022-10-21T17:34:22.247Z,18.20
2022-10-21T17:38:06.267Z,18.20
2022-10-21T17:44:47.606Z,18.10
2022-10-21T17:47:50.538Z,18.00
2022-10-21T17:54:29.265Z,17.70
2022-10-21T18:05:00.602Z,17.50
2022-10-21T18:10:57.660Z,17.80
2022-10-21T18:13:28.119Z,17.90
2022-10-21T18:15:57.216Z,17.90
2022-10-21T18:23:48.714Z,17.70
2022-10-21T18:58:42.465Z,17.30
2022-10-21T19:01:55.747Z,17.40
2022-10-21T19:04:59.644Z,17.30
2022-10-21T19:08:32.709Z,17.20
2022-10-21T19:11:51.016Z,17.10
2022-10-21T19:15:20.498Z,17.00
2022-10-21T19:18:37.487Z,17.20
2022-10-21T19:29:04.822Z,17.10
2022-10-21T19:32:32.492Z,17.10
2022-10-21T19:39:46.989Z,17.10
2022-10-21T19:46:38.951Z,17.20
2022-10-21T19:53:15.520Z,17.20
2022-10-21T19:56:38.124Z,17.30
2022-10-21T19:59:59.532Z,17.10
2022-10-21T20:03:19.445Z,17.10
2022-10-21T20:06:34.513Z,17.10
2022-10-21T20:10:14.046Z,17.10
2022-10-21T20:17:41.448Z,17.20
2022-10-21T20:22:02.745Z,17.30
2022-10-21T20:24:46.275Z,17.30
2022-10-21T20:28:25.716Z,17.30
2022-10-21T20:31:31.316Z,17.20
2022-10-21T20:38:57.524Z,17.30
2022-10-21T20:43:00.450Z,17.30
2022-10-21T20:50:49.660Z,17.10
2022-10-21T21:11:24.378Z,17.10
2022-10-21T21:23:13.741Z,17.20
2022-10-21T21:26:13.658Z,17.20
2022-10-21T21:32:57.176Z,17.30
2022-10-21T21:36:11.277Z,17.20
2022-10-21T21:43:08.836Z,17.10
2022-10-21T21:46:13.456Z,17.10
2022-10-21T21:49:35.025Z,17.20
2022-10-21T21:52:50.713Z,17.10
2022-10-21T22:00:20.420Z,17.20
2022-10-21T22:10:45.307Z,17.10
2022-10-21T22:13:52.451Z,16.70
2022-10-21T22:34:07.786Z,17.20
2022-10-21T22:37:05.943Z,17.30
2022-10-21T22:40:07.956Z,17.30
2022-10-21T22:48:08.028Z,17.50
2022-10-21T22:51:23.701Z,17.50
2022-10-21T22:55:31.936Z,17.40
2022-10-21T23:00:13.865Z,17.40
2022-10-21T23:03:36.979Z,17.50
2022-10-21T23:14:56.506Z,17.50
2022-10-21T23:18:44.401Z,17.40
2022-10-21T23:26:16.605Z,17.30
2022-10-21T23:29:42.505Z,17.20
2022-10-21T23:32:40.413Z,17.30
2022-10-21T23:35:48.315Z,17.40
2022-10-21T23:38:51.794Z,17.30
2022-10-21T23:41:39.807Z,17.50
2022-10-21T23:44:42.092Z,17.30
2022-10-21T23:47:45.154Z,17.10
2022-10-21T23:50:44.672Z,17.10
2022-10-21T23:53:53.791Z,16.90
2022-10-21T23:57:04.484Z,17.00
